Time;durP1;ratioP1;P1;durP2;ratioP2;P2;SDS_P1;SDS_P2;PMS_P1;PMS_P2;Temp;Humidity;BMP_temperature;BMP_pressure;BME280_temperature;BME280_humidity;BME280_pressure;Samples;Min_cycle;Max_cycle;Signal;HPM_P1;HPM_P2
2023/12/14 00:01:20;;;;;;;7.07;2.10;;;;;;;-148.14;100.00;65945.72;4928934;29;20055;-88
2023/12/14 00:04:10;;;;;;;9.10;2.35;;;;;;;-148.14;100.00;65945.72;4923314;29;20144;-88
2023/12/14 00:07:02;;;;;;;9.52;2.15;;;;;;;-148.14;100.00;65945.72;4936604;29;20131;-87
2023/12/14 00:09:48;;;;;;;9.10;2.15;;;;;;;-148.14;100.00;65945.72;4949123;28;20573;-90
2023/12/14 00:12:33;;;;;;;9.75;1.90;;;;;;;-148.14;100.00;65945.72;4929412;29;20114;-87
2023/12/14 00:15:16;;;;;;;5.60;1.83;;;;;;;-148.14;100.00;65945.72;4929869;29;20058;-87
2023/12/14 00:18:00;;;;;;;10.38;2.75;;;;;;;-148.14;100.00;65945.72;4946985;29;20050;-89
2023/12/14 00:20:44;;;;;;;5.30;1.70;;;;;;;-148.14;100.00;65945.72;4927171;29;20058;-87
2023/12/14 00:23:31;;;;;;;7.80;2.05;;;;;;;-148.14;100.00;65945.72;4937096;29;20103;-91
2023/12/14 00:26:17;;;;;;;3.67;1.80;;;;;;;-148.14;100.00;65945.72;4930425;29;20573;-88
2023/12/14 00:29:01;;;;;;;4.90;2.70;;;;;;;-148.14;100.00;65945.72;4940732;29;20130;-88
2023/12/14 00:31:45;;;;;;;8.48;2.45;;;;;;;-148.14;100.00;65945.72;4928629;29;20054;-86
2023/12/14 00:34:29;;;;;;;10.27;2.35;;;;;;;-148.14;100.00;65945.72;4930492;29;20051;-88
2023/12/14 00:37:13;;;;;;;11.93;2.58;;;;;;;-148.14;100.00;65945.72;4936581;29;20041;-87
2023/12/14 00:39:57;;;;;;;9.63;2.20;;;;;;;-148.14;100.00;65945.72;4931032;29;20074;-89
2023/12/14 00:42:41;;;;;;;9.65;1.95;;;;;;;-148.14;100.00;65945.72;4929303;28;20086;-89
2023/12/14 00:45:25;;;;;;;6.47;2.83;;;;;;;-148.14;100.00;65945.72;4930643;29;20532;-88
2023/12/14 00:48:09;;;;;;;5.93;1.90;;;;;;;-148.14;100.00;65945.72;4938375;29;20138;-86
2023/12/14 00:50:53;;;;;;;11.00;2.50;;;;;;;-148.14;100.00;65945.72;4936745;29;20046;-86
2023/12/14 00:53:37;;;;;;;6.90;3.05;;;;;;;-148.14;100.00;65945.72;4925657;29;20055;-88
2023/12/14 00:56:21;;;;;;;7.47;3.15;;;;;;;-148.14;100.00;65945.72;4945983;29;20046;-90
2023/12/14 00:59:05;;;;;;;11.00;3.35;;;;;;;-148.14;100.00;65945.72;4925315;29;20046;-88
2023/12/14 01:01:50;;;;;;;10.55;3.50;;;;;;;-148.14;100.00;65945.72;4926834;29;20055;-90
2023/12/14 01:04:33;;;;;;;10.65;3.90;;;;;;;-148.14;100.00;65945.72;4927823;28;20107;-88
2023/12/14 01:07:17;;;;;;;9.18;4.05;;;;;;;-148.14;100.00;65945.72;4945557;28;20049;-88
2023/12/14 01:10:02;;;;;;;12.07;4.45;;;;;;;-148.14;100.00;65945.72;4928910;28;20142;-88
2023/12/14 01:12:46;;;;;;;14.50;5.65;;;;;;;-148.14;100.00;65945.72;4943956;29;20099;-90
2023/12/14 01:15:31;;;;;;;20.42;7.70;;;;;;;-148.14;100.00;65945.72;4925753;29;20106;-86
2023/12/14 01:18:15;;;;;;;19.38;7.88;;;;;;;-148.14;100.00;65945.72;4922112;29;20078;-91
2023/12/14 01:20:59;;;;;;;22.27;7.97;;;;;;;-148.14;100.00;65945.72;4942780;29;20050;-90
2023/12/14 01:23:44;;;;;;;21.77;7.55;;;;;;;-148.14;100.00;65945.72;4930854;29;20046;-87
2023/12/14 01:26:28;;;;;;;17.38;7.38;;;;;;;-148.14;100.00;65945.72;4933532;29;20134;-89
2023/12/14 01:29:14;;;;;;;18.75;6.43;;;;;;;-148.14;100.00;65945.72;4933479;29;20101;-89
2023/12/14 01:31:58;;;;;;;15.60;6.60;;;;;;;-148.14;100.00;65945.72;4931409;29;20127;-88
2023/12/14 01:34:49;;;;;;;21.08;7.82;;;;;;;-148.14;100.00;65945.72;4919798;29;20054;-89
2023/12/14 01:37:33;;;;;;;25.00;8.38;;;;;;;-148.14;100.00;65945.72;4928592;29;20043;-89
2023/12/14 01:40:19;;;;;;;24.65;9.55;;;;;;;-148.14;100.00;65945.72;4929258;29;21959;-89
2023/12/14 01:43:09;;;;;;;20.65;8.50;;;;;;;-148.14;100.00;65945.72;4926077;29;20133;-89
2023/12/14 01:45:54;;;;;;;21.90;8.68;;;;;;;-148.14;100.00;65945.72;4922632;29;20483;-89
2023/12/14 01:48:38;;;;;;;19.50;8.25;;;;;;;-148.14;100.00;65945.72;4930119;29;20047;-88
2023/12/14 01:51:22;;;;;;;15.35;6.85;;;;;;;-148.14;100.00;65945.72;4943965;29;20111;-90
2023/12/14 01:54:07;;;;;;;17.92;6.78;;;;;;;-148.14;100.00;65945.72;4932640;28;20054;-87
2023/12/14 01:56:51;;;;;;;13.98;5.72;;;;;;;-148.14;100.00;65945.72;4935163;29;20057;-89
2023/12/14 01:59:37;;;;;;;14.93;6.40;;;;;;;-148.14;100.00;65945.72;4908687;29;20063;-87
2023/12/14 02:02:21;;;;;;;13.98;6.65;;;;;;;-148.14;100.00;65945.72;4932386;29;20047;-89
2023/12/14 02:05:05;;;;;;;11.77;5.65;;;;;;;-148.14;100.00;65945.72;4924290;29;20058;-88
2023/12/14 02:07:50;;;;;;;14.82;4.75;;;;;;;-148.14;100.00;65945.72;4942498;29;20406;-89
2023/12/14 02:10:34;;;;;;;14.02;5.00;;;;;;;-148.14;100.00;65945.72;4929186;29;20043;-90
2023/12/14 02:13:19;;;;;;;14.30;5.75;;;;;;;-148.14;100.00;65945.72;4929127;29;20410;-87
2023/12/14 02:16:03;;;;;;;14.38;4.95;;;;;;;-148.14;100.00;65945.72;4925953;29;20139;-87
2023/12/14 02:18:47;;;;;;;12.43;4.97;;;;;;;-148.14;100.00;65945.72;4930417;29;20511;-88
2023/12/14 02:21:34;;;;;;;11.43;5.30;;;;;;;-148.14;100.00;65945.72;4927741;29;20042;-90
2023/12/14 02:24:18;;;;;;;15.30;6.60;;;;;;;-148.14;100.00;65945.72;4925817;29;20046;-88
2023/12/14 02:27:02;;;;;;;19.13;7.20;;;;;;;-148.14;100.00;65945.72;4936043;29;20043;-87
2023/12/14 02:29:47;;;;;;;19.10;6.57;;;;;;;-148.14;100.00;65945.72;4930428;29;20086;-86
2023/12/14 02:32:30;;;;;;;17.08;7.65;;;;;;;-148.14;100.00;65945.72;4931833;29;20066;-88
2023/12/14 02:35:15;;;;;;;17.20;5.97;;;;;;;-148.14;100.00;65945.72;4937166;29;20059;-86
2023/12/14 02:37:59;;;;;;;20.70;6.57;;;;;;;-148.14;100.00;65945.72;4928343;29;20126;-87
2023/12/14 02:40:52;;;;;;;20.95;6.05;;;;;;;-148.14;100.00;65945.72;4924182;29;20107;-88
2023/12/14 02:43:37;;;;;;;15.85;5.50;;;;;;;-148.14;100.00;65945.72;4924100;29;20515;-89
2023/12/14 02:46:27;;;;;;;18.17;6.57;;;;;;;-148.14;100.00;65945.72;4928364;29;20045;-89
2023/12/14 02:49:14;;;;;;;14.07;5.20;;;;;;;-148.14;100.00;65945.72;4937551;29;20042;-89
2023/12/14 02:51:58;;;;;;;13.50;4.90;;;;;;;-148.14;100.00;65945.72;4933726;29;20089;-87
2023/12/14 02:54:42;;;;;;;12.80;5.60;;;;;;;-148.14;100.00;65945.72;4923832;29;20480;-87
2023/12/14 02:57:26;;;;;;;18.40;5.13;;;;;;;-148.14;100.00;65945.72;4934056;29;20050;-87
2023/12/14 03:00:10;;;;;;;17.27;6.32;;;;;;;-148.14;100.00;65945.72;4916121;29;20115;-87
2023/12/14 03:02:55;;;;;;;32.15;10.85;;;;;;;-148.14;100.00;65945.72;4918640;29;20067;-87
2023/12/14 03:05:39;;;;;;;45.00;16.50;;;;;;;-148.14;100.00;65945.72;4940839;29;20131;-87
2023/12/14 03:08:23;;;;;;;32.75;14.38;;;;;;;-148.14;100.00;65945.72;4931847;29;20083;-87
2023/12/14 03:11:07;;;;;;;30.60;11.98;;;;;;;-148.14;100.00;65945.72;4941823;29;20047;-88
2023/12/14 03:13:52;;;;;;;16.45;6.05;;;;;;;-148.14;100.00;65945.72;4928991;29;20458;-89
2023/12/14 03:16:35;;;;;;;12.68;4.00;;;;;;;-148.14;100.00;65945.72;4931719;29;20137;-88
2023/12/14 03:19:19;;;;;;;11.93;3.92;;;;;;;-148.14;100.00;65945.72;4934728;29;20556;-87
2023/12/14 03:22:03;;;;;;;13.02;4.15;;;;;;;-148.14;100.00;65945.72;4924104;29;20111;-87
2023/12/14 03:24:47;;;;;;;8.82;3.80;;;;;;;-148.14;100.00;65945.72;4915639;29;20066;-88
2023/12/14 03:27:31;;;;;;;12.27;3.55;;;;;;;-148.14;100.00;65945.72;4925589;29;20119;-86
2023/12/14 03:30:15;;;;;;;13.18;4.18;;;;;;;-148.14;100.00;65945.72;4931391;29;20118;-88
2023/12/14 03:33:00;;;;;;;6.75;3.42;;;;;;;-148.14;100.00;65945.72;4931312;29;20151;-87
2023/12/14 03:35:46;;;;;;;10.38;3.63;;;;;;;-148.14;100.00;65945.72;4917830;29;20044;-89
2023/12/14 03:38:31;;;;;;;15.02;3.53;;;;;;;-148.14;100.00;65945.72;4933877;29;20133;-87
2023/12/14 03:41:15;;;;;;;6.78;2.90;;;;;;;-148.14;100.00;65945.72;4930948;29;20043;-87
2023/12/14 03:43:59;;;;;;;9.70;3.92;;;;;;;-148.14;100.00;65945.72;4923625;29;20566;-86
2023/12/14 03:46:46;;;;;;;14.50;4.25;;;;;;;-148.14;100.00;65945.72;4922289;29;20174;-86
2023/12/14 03:49:30;;;;;;;9.98;4.15;;;;;;;-148.14;100.00;65945.72;4924912;29;20059;-86
2023/12/14 03:52:14;;;;;;;9.85;4.30;;;;;;;-148.14;100.00;65945.72;4930944;29;20099;-91
2023/12/14 03:54:58;;;;;;;12.48;4.07;;;;;;;-148.14;100.00;65945.72;4942840;28;20179;-89
2023/12/14 03:57:42;;;;;;;13.25;4.25;;;;;;;-148.14;100.00;65945.72;4923821;29;20063;-88
2023/12/14 04:00:27;;;;;;;10.00;5.45;;;;;;;-148.14;100.00;65945.72;4928216;29;20532;-87
2023/12/14 04:03:10;;;;;;;10.35;5.28;;;;;;;-148.14;100.00;65945.72;4929230;29;20050;-86
2023/12/14 04:05:54;;;;;;;8.38;3.65;;;;;;;-148.14;100.00;65945.72;4928425;29;20046;-90
2023/12/14 04:08:44;;;;;;;11.25;4.88;;;;;;;-148.14;100.00;65945.72;4931118;29;20046;-88
2023/12/14 04:11:28;;;;;;;10.07;4.35;;;;;;;-148.14;100.00;65945.72;4939664;29;20110;-87
2023/12/14 04:14:11;;;;;;;11.18;4.80;;;;;;;-148.14;100.00;65945.72;4930970;29;20074;-87
2023/12/14 04:16:56;;;;;;;15.73;4.70;;;;;;;-148.14;100.00;65945.72;4927180;29;20513;-88
2023/12/14 04:19:41;;;;;;;8.50;3.67;;;;;;;-148.14;100.00;65945.72;4944896;29;20050;-88
2023/12/14 04:22:26;;;;;;;8.50;3.78;;;;;;;-148.14;100.00;65945.72;4932027;29;20086;-88
2023/12/14 04:25:10;;;;;;;9.27;3.70;;;;;;;-148.14;100.00;65945.72;4936505;29;20059;-88
2023/12/14 04:27:55;;;;;;;8.85;3.78;;;;;;;-148.14;100.00;65945.72;4939867;29;20151;-89
2023/12/14 04:30:39;;;;;;;6.88;3.45;;;;;;;-148.14;100.00;65945.72;4926593;29;20058;-87
2023/12/14 04:33:23;;;;;;;5.45;2.47;;;;;;;-148.14;100.00;65945.72;4927589;29;20050;-88
2023/12/14 04:36:07;;;;;;;11.02;3.03;;;;;;;-148.14;100.00;65945.72;4922029;29;20092;-91
2023/12/14 04:38:51;;;;;;;6.43;3.15;;;;;;;-148.14;100.00;65945.72;4922056;29;20379;-87
2023/12/14 04:41:35;;;;;;;13.98;3.50;;;;;;;-148.14;100.00;65945.72;4928721;28;20094;-86
2023/12/14 04:44:21;;;;;;;10.63;3.60;;;;;;;-148.14;100.00;65945.72;4932718;29;20062;-87
2023/12/14 04:47:05;;;;;;;11.45;3.35;;;;;;;-148.14;100.00;65945.72;4934494;29;21764;-88
2023/12/14 04:49:49;;;;;;;8.57;3.10;;;;;;;-148.14;100.00;65945.72;4943654;29;20086;-89
2023/12/14 04:52:33;;;;;;;11.77;3.25;;;;;;;-148.14;100.00;65945.72;4934986;29;20106;-90
2023/12/14 04:55:17;;;;;;;7.28;2.78;;;;;;;-148.14;100.00;65945.72;4933163;29;20580;-89
2023/12/14 04:58:01;;;;;;;11.30;3.47;;;;;;;-148.14;100.00;65945.72;4922361;29;20176;-88
2023/12/14 05:00:45;;;;;;;11.65;3.47;;;;;;;-148.14;100.00;65945.72;4945439;29;20058;-90
2023/12/14 05:03:29;;;;;;;9.13;4.60;;;;;;;-148.14;100.00;65945.72;4948570;29;20074;-90
2023/12/14 05:06:14;;;;;;;15.77;4.78;;;;;;;-148.14;100.00;65945.72;4948916;29;20066;-89
2023/12/14 05:08:58;;;;;;;13.93;5.65;;;;;;;-148.14;100.00;65945.72;4950366;29;20077;-90
2023/12/14 05:11:43;;;;;;;13.23;4.97;;;;;;;-148.14;100.00;65945.72;4949966;29;20050;-90
2023/12/14 05:14:29;;;;;;;8.98;4.45;;;;;;;-148.14;100.00;65945.72;4949251;29;20075;-90
2023/12/14 05:17:13;;;;;;;15.40;5.35;;;;;;;-148.14;100.00;65945.72;4948164;29;20075;-90
2023/12/14 05:19:58;;;;;;;13.35;4.88;;;;;;;-148.14;100.00;65945.72;4948272;29;20054;-90
2023/12/14 05:22:43;;;;;;;13.77;7.30;;;;;;;-148.14;100.00;65945.72;4947890;29;20129;-90
2023/12/14 05:25:27;;;;;;;13.93;6.38;;;;;;;-148.14;100.00;65945.72;4947911;29;20074;-90
2023/12/14 05:28:12;;;;;;;12.48;5.95;;;;;;;-148.14;100.00;65945.72;4947645;29;20050;-90
2023/12/14 05:30:56;;;;;;;9.98;5.85;;;;;;;-148.14;100.00;65945.72;4947631;29;20058;-89
2023/12/14 05:33:40;;;;;;;10.95;5.13;;;;;;;-148.14;100.00;65945.72;4947446;29;20038;-89
2023/12/14 05:36:24;;;;;;;13.07;5.55;;;;;;;-148.14;100.00;65945.72;4945392;29;20125;-89
2023/12/14 05:39:09;;;;;;;11.88;5.22;;;;;;;-148.14;100.00;65945.72;4937878;29;20059;-90
2023/12/14 05:41:53;;;;;;;14.88;5.68;;;;;;;-148.14;100.00;65945.72;4928309;29;20107;-90
2023/12/14 05:44:37;;;;;;;16.08;4.40;;;;;;;-148.14;100.00;65945.72;4931359;29;20070;-90
2023/12/14 05:47:21;;;;;;;13.98;5.32;;;;;;;-148.14;100.00;65945.72;4928683;29;20598;-89
2023/12/14 05:50:08;;;;;;;18.13;5.82;;;;;;;-148.14;100.00;65945.72;4927486;29;20087;-90
2023/12/14 05:52:52;;;;;;;10.57;4.90;;;;;;;-148.14;100.00;65945.72;4929824;29;20070;-88
2023/12/14 05:55:36;;;;;;;9.85;4.57;;;;;;;-148.14;100.00;65945.72;4924627;29;20066;-90
2023/12/14 05:58:20;;;;;;;17.20;5.63;;;;;;;-148.14;100.00;65945.72;4930882;29;20109;-89
2023/12/14 06:01:04;;;;;;;12.85;5.93;;;;;;;-148.14;100.00;65945.72;4922402;29;20039;-84
2023/12/14 06:03:48;;;;;;;13.32;5.72;;;;;;;-148.14;100.00;65945.72;4920975;29;20071;-85
2023/12/14 06:06:32;;;;;;;19.10;5.90;;;;;;;-148.14;100.00;65945.72;4917659;29;20565;-86
2023/12/14 06:09:18;;;;;;;12.32;5.97;;;;;;;-148.14;100.00;65945.72;4927457;29;20103;-84
2023/12/14 06:12:04;;;;;;;14.48;6.30;;;;;;;-148.14;100.00;65945.72;4929027;29;20126;-85
2023/12/14 06:14:48;;;;;;;14.73;6.18;;;;;;;-148.14;100.00;65945.72;4929056;29;20050;-84
2023/12/14 06:17:33;;;;;;;18.38;7.22;;;;;;;-148.14;100.00;65945.72;4934602;29;20106;-85
2023/12/14 06:20:17;;;;;;;15.90;7.38;;;;;;;-148.14;100.00;65945.72;4931600;29;20053;-85
2023/12/14 06:23:01;;;;;;;17.20;7.55;;;;;;;-148.14;100.00;65945.72;4933870;29;20038;-85
2023/12/14 06:25:46;;;;;;;16.58;6.93;;;;;;;-148.14;100.00;65945.72;4921871;29;20099;-85
2023/12/14 06:28:30;;;;;;;17.42;6.60;;;;;;;-148.14;100.00;65945.72;4919483;29;20513;-85
2023/12/14 06:31:20;;;;;;;18.08;7.40;;;;;;;-148.14;100.00;65945.72;4922139;29;20494;-86
2023/12/14 06:34:05;;;;;;;16.00;5.93;;;;;;;-148.14;100.00;65945.72;4937880;29;20138;-85
2023/12/14 06:36:49;;;;;;;14.88;6.82;;;;;;;-148.14;100.00;65945.72;4917928;29;20068;-86
2023/12/14 06:39:34;;;;;;;20.88;7.10;;;;;;;-148.14;100.00;65945.72;4932534;29;20046;-85
2023/12/14 06:42:18;;;;;;;12.73;7.15;;;;;;;-148.14;100.00;65945.72;4924120;29;20128;-86
2023/12/14 06:45:03;;;;;;;17.52;8.10;;;;;;;-148.14;100.00;65945.72;4923272;29;20451;-86
2023/12/14 06:47:47;;;;;;;14.77;7.75;;;;;;;-148.14;100.00;65945.72;4925332;29;20183;-85
2023/12/14 06:50:31;;;;;;;18.35;7.22;;;;;;;-148.14;100.00;65945.72;4943672;29;20042;-86
2023/12/14 06:53:15;;;;;;;17.08;7.35;;;;;;;-148.14;100.00;65945.72;4932812;29;20102;-87
2023/12/14 06:55:59;;;;;;;19.05;7.85;;;;;;;-148.14;100.00;65945.72;4932956;29;20508;-85
2023/12/14 06:58:44;;;;;;;16.65;7.38;;;;;;;-148.14;100.00;65945.72;4932075;29;20493;-85
2023/12/14 07:01:28;;;;;;;15.95;8.77;;;;;;;-148.14;100.00;65945.72;4945397;29;20047;-86
2023/12/14 07:04:13;;;;;;;22.38;8.43;;;;;;;-148.14;100.00;65945.72;4922044;29;20521;-84
2023/12/14 07:06:58;;;;;;;12.05;6.03;;;;;;;-148.14;100.00;65945.72;4924330;29;20058;-85
2023/12/14 07:09:44;;;;;;;21.38;7.28;;;;;;;-148.14;100.00;65945.72;4926486;29;20520;-86
2023/12/14 07:12:32;;;;;;;14.57;7.22;;;;;;;-148.14;100.00;65945.72;4926967;29;20041;-86
2023/12/14 07:15:16;;;;;;;15.10;5.55;;;;;;;-148.14;100.00;65945.72;4937177;29;20074;-85
2023/12/14 07:18:02;;;;;;;15.25;5.82;;;;;;;-148.14;100.00;65945.72;4930211;29;20652;-86
2023/12/14 07:20:47;;;;;;;11.27;5.78;;;;;;;-148.14;100.00;65945.72;4924990;29;20043;-86
2023/12/14 07:23:31;;;;;;;10.30;5.38;;;;;;;-148.14;100.00;65945.72;4925068;29;20078;-87
2023/12/14 07:26:15;;;;;;;11.27;6.03;;;;;;;-148.14;100.00;65945.72;4930643;29;20050;-86
2023/12/14 07:28:59;;;;;;;12.65;7.10;;;;;;;-148.14;100.00;65945.72;4937193;29;20100;-90
2023/12/14 07:31:46;;;;;;;14.18;7.80;;;;;;;-148.14;100.00;65945.72;4953605;29;20084;-90
2023/12/14 07:34:30;;;;;;;13.50;6.68;;;;;;;-148.14;100.00;65945.72;4933531;29;20047;-89
2023/12/14 07:37:15;;;;;;;12.30;6.28;;;;;;;-148.14;100.00;65945.72;4929617;29;20042;-89
2023/12/14 07:40:00;;;;;;;14.35;7.30;;;;;;;-148.14;100.00;65945.72;4934176;29;20075;-91
2023/12/14 07:42:49;;;;;;;14.55;7.38;;;;;;;-148.14;100.00;65945.72;4949797;29;20115;-89
2023/12/14 07:45:48;;;;;;;11.48;7.03;;;;;;;-148.14;100.00;65945.72;4932325;29;20151;-89
2023/12/14 07:48:39;;;;;;;15.32;7.93;;;;;;;-148.14;100.00;65945.72;4932232;29;20112;-90
2023/12/14 07:51:28;;;;;;;16.85;9.43;;;;;;;-148.14;100.00;65945.72;4940375;29;20055;-90
2023/12/14 07:54:13;;;;;;;18.67;9.45;;;;;;;-148.14;100.00;65945.72;4933318;29;20047;-89
2023/12/14 07:56:57;;;;;;;14.43;8.50;;;;;;;-148.14;100.00;65945.72;4932532;29;20098;-88
2023/12/14 07:59:41;;;;;;;16.08;8.80;;;;;;;-148.14;100.00;65945.72;4924082;29;20075;-88
2023/12/14 08:02:27;;;;;;;17.15;8.70;;;;;;;-148.14;100.00;65945.72;4935518;29;20135;-87
2023/12/14 08:05:16;;;;;;;14.32;8.35;;;;;;;-148.14;100.00;65945.72;4932865;29;20220;-84
2023/12/14 08:08:00;;;;;;;18.23;9.10;;;;;;;-148.14;100.00;65945.72;4924030;29;20046;-85
2023/12/14 08:10:44;;;;;;;13.25;8.95;;;;;;;-148.14;100.00;65945.72;4952948;29;20452;-89
2023/12/14 08:18:47;;;;;;;21.30;9.85;;;;;;;-148.14;100.00;65945.72;4938924;29;20047;-89
2023/12/14 08:21:33;;;;;;;15.15;9.25;;;;;;;-148.14;100.00;65945.72;4875057;29;20465;-87
2023/12/14 08:24:45;;;;;;;17.77;10.43;;;;;;;-148.14;100.00;65945.72;4864800;29;20415;-88
2023/12/14 08:27:29;;;;;;;16.10;10.65;;;;;;;-148.14;100.00;65945.72;4942896;29;20046;-87
2023/12/14 08:30:29;;;;;;;17.65;11.05;;;;;;;-148.14;100.00;65945.72;4943018;29;20058;-85
2023/12/14 08:33:12;;;;;;;17.77;10.90;;;;;;;-148.14;100.00;65945.72;4932326;29;20397;-86
2023/12/14 08:35:56;;;;;;;21.83;11.27;;;;;;;-148.14;100.00;65945.72;4945511;29;20449;-86
2023/12/14 08:38:41;;;;;;;23.33;12.88;;;;;;;-148.14;100.00;65945.72;4933835;29;20045;-87
2023/12/14 08:41:26;;;;;;;20.33;11.73;;;;;;;-148.14;100.00;65945.72;4927492;29;20536;-89
2023/12/14 08:44:09;;;;;;;25.02;14.15;;;;;;;-148.14;100.00;65945.72;4929007;29;20106;-87
2023/12/14 08:46:54;;;;;;;22.63;13.88;;;;;;;-148.14;100.00;65945.72;4919778;29;20054;-89
2023/12/14 08:49:38;;;;;;;25.65;14.18;;;;;;;-148.14;100.00;65945.72;4937671;29;20597;-86
2023/12/14 08:52:22;;;;;;;23.58;13.82;;;;;;;-148.14;100.00;65945.72;4928435;29;20065;-87
2023/12/14 08:55:09;;;;;;;27.90;13.88;;;;;;;-148.14;100.00;65945.72;4927948;29;20051;-86
2023/12/14 08:57:53;;;;;;;24.95;13.23;;;;;;;-148.14;100.00;65945.72;4932113;29;20050;-85
2023/12/14 09:00:38;;;;;;;25.00;13.35;;;;;;;-148.14;100.00;65945.72;4926377;29;20083;-87
2023/12/14 09:03:22;;;;;;;29.60;16.85;;;;;;;-148.14;100.00;65945.72;4919582;29;20054;-88
2023/12/14 09:13:59;;;;;;;17.83;10.98;;;;;;;-148.14;100.00;65945.72;4941466;29;20506;-90
2023/12/14 09:16:43;;;;;;;12.70;7.90;;;;;;;-148.14;100.00;65945.72;4936943;29;20501;-88
2023/12/14 09:19:31;;;;;;;14.65;7.93;;;;;;;-148.14;100.00;65945.72;4936340;29;20098;-89
2023/12/14 09:25:35;;;;;;;10.70;5.45;;;;;;;-148.14;100.00;65945.72;4914308;29;20051;-89
2023/12/14 09:28:19;;;;;;;8.43;5.40;;;;;;;-148.14;100.00;65945.72;4930973;29;20451;-89
2023/12/14 09:31:03;;;;;;;9.85;4.72;;;;;;;-148.14;100.00;65945.72;4931474;29;20058;-91
2023/12/14 09:33:47;;;;;;;6.80;5.10;;;;;;;-148.14;100.00;65945.72;4939981;29;20062;-90
2023/12/14 09:36:31;;;;;;;7.20;5.07;;;;;;;-148.14;100.00;65945.72;4938607;29;20050;-91
2023/12/14 09:39:15;;;;;;;8.23;4.70;;;;;;;-148.14;100.00;65945.72;4927416;29;20065;-88
2023/12/14 09:42:04;;;;;;;6.47;4.43;;;;;;;-148.14;100.00;65945.72;4927448;29;20410;-89
2023/12/14 09:44:48;;;;;;;6.72;4.85;;;;;;;-148.14;100.00;65945.72;4926000;29;20454;-89
2023/12/14 09:47:33;;;;;;;7.40;4.95;;;;;;;-148.14;100.00;65945.72;4927699;29;20134;-90
2023/12/14 09:50:17;;;;;;;7.53;5.25;;;;;;;-148.14;100.00;65945.72;4914998;29;20072;-90
2023/12/14 09:53:01;;;;;;;8.95;4.82;;;;;;;-148.14;100.00;65945.72;4929330;29;20098;-89
2023/12/14 09:55:45;;;;;;;7.25;4.50;;;;;;;-148.14;100.00;65945.72;4923378;29;20047;-90
2023/12/14 09:58:33;;;;;;;6.38;4.35;;;;;;;-148.14;100.00;65945.72;4912294;29;20094;-91
2023/12/14 10:01:22;;;;;;;6.28;4.60;;;;;;;-148.14;100.00;65945.72;4929419;29;20407;-88
2023/12/14 10:04:09;;;;;;;7.10;4.38;;;;;;;-148.14;100.00;65945.72;4912424;29;20131;-90
2023/12/14 10:06:55;;;;;;;8.15;4.63;;;;;;;-148.14;100.00;65945.72;4927098;29;20094;-90
2023/12/14 10:09:39;;;;;;;7.70;4.60;;;;;;;-148.14;100.00;65945.72;4904723;29;20562;-90
2023/12/14 10:12:24;;;;;;;4.97;4.07;;;;;;;-148.14;100.00;65945.72;4909949;29;20042;-90
2023/12/14 10:15:09;;;;;;;5.45;3.80;;;;;;;-148.14;100.00;65945.72;4909770;29;20560;-90
2023/12/14 10:17:54;;;;;;;4.72;3.33;;;;;;;-148.14;100.00;65945.72;4910590;29;20115;-89
2023/12/14 10:20:40;;;;;;;6.45;4.95;;;;;;;-148.14;100.00;65945.72;4908102;29;20431;-89
2023/12/14 10:23:24;;;;;;;7.50;4.97;;;;;;;-148.14;100.00;65945.72;4910003;29;20075;-90
2023/12/14 10:26:09;;;;;;;10.05;6.07;;;;;;;-148.14;100.00;65945.72;4908192;29;20533;-89
2023/12/14 10:28:53;;;;;;;11.27;6.28;;;;;;;-148.14;100.00;65945.72;4914113;29;20062;-89
2023/12/14 10:31:37;;;;;;;8.77;5.90;;;;;;;-148.14;100.00;65945.72;4910753;29;20139;-89
2023/12/14 10:34:21;;;;;;;9.60;5.80;;;;;;;-148.14;100.00;65945.72;4919508;29;20050;-88
2023/12/14 10:37:06;;;;;;;10.63;6.63;;;;;;;-148.14;100.00;65945.72;4922884;29;20051;-88
2023/12/14 10:39:57;;;;;;;7.95;5.78;;;;;;;-148.14;100.00;65945.72;4911940;29;20108;-89
2023/12/14 10:43:13;;;;;;;9.23;5.72;;;;;;;-148.14;100.00;65945.72;4918895;29;20054;-90
2023/12/14 10:46:01;;;;;;;11.30;5.90;;;;;;;-148.14;100.00;65945.72;4935092;28;20058;-89
2023/12/14 10:48:54;;;;;;;11.60;6.15;;;;;;;-148.14;100.00;65945.72;4928117;29;20573;-89
2023/12/14 10:51:42;;;;;;;9.13;6.10;;;;;;;-148.14;100.00;65945.72;4933227;29;20046;-88
2023/12/14 10:54:27;;;;;;;8.43;5.43;;;;;;;-148.14;100.00;65945.72;4929768;29;20055;-90
2023/12/14 10:57:12;;;;;;;7.28;5.28;;;;;;;-148.14;100.00;65945.72;4929596;29;20042;-90
2023/12/14 11:00:00;;;;;;;11.05;6.65;;;;;;;-148.14;100.00;65945.72;4931711;29;20115;-92
2023/12/14 11:02:47;;;;;;;13.73;10.10;;;;;;;-148.14;100.00;65945.72;4923041;29;20071;-89
2023/12/14 11:05:33;;;;;;;22.40;13.13;;;;;;;-148.14;100.00;65945.72;4931046;29;20531;-89
2023/12/14 11:08:28;;;;;;;35.90;24.40;;;;;;;-148.14;100.00;65945.72;4926430;29;20060;-90
2023/12/14 11:12:08;;;;;;;;;;;;;;;;;;;;;
2023/12/14 11:22:44;;;;;;;21.30;15.13;;;;;;;-148.14;100.00;65945.72;4939495;29;20078;-90
2023/12/14 11:25:28;;;;;;;29.05;22.58;;;;;;;-148.14;100.00;65945.72;4927567;29;20106;-89
2023/12/14 11:28:13;;;;;;;30.08;20.35;;;;;;;-148.14;100.00;65945.72;4934923;29;20046;-90
2023/12/14 11:31:00;;;;;;;27.05;19.35;;;;;;;-148.14;100.00;65945.72;4946624;29;20098;-90
2023/12/14 11:33:44;;;;;;;33.08;23.83;;;;;;;-148.14;100.00;65945.72;4924376;29;20078;-90
2023/12/14 11:36:28;;;;;;;23.00;15.30;;;;;;;-148.14;100.00;65945.72;4928848;29;20058;-91
2023/12/14 11:39:13;;;;;;;22.70;14.35;;;;;;;-148.14;100.00;65945.72;4927350;29;20422;-90
2023/12/14 11:42:10;;;;;;;33.20;21.83;;;;;;;-148.14;100.00;65945.72;4924117;29;20582;-90
2023/12/14 11:44:55;;;;;;;20.85;12.50;;;;;;;-148.14;100.00;65945.72;4924236;29;20110;-91
2023/12/14 11:47:40;;;;;;;17.63;11.52;;;;;;;-148.14;100.00;65945.72;4924048;29;20099;-90
2023/12/14 11:50:27;;;;;;;23.40;13.50;;;;;;;-148.14;100.00;65945.72;4925957;29;20042;-90
2023/12/14 11:53:12;;;;;;;20.40;12.60;;;;;;;-148.14;100.00;65945.72;4931317;29;20107;-90
2023/12/14 11:55:56;;;;;;;24.58;13.43;;;;;;;-148.14;100.00;65945.72;4929238;29;20119;-91
2023/12/14 11:58:41;;;;;;;27.60;16.25;;;;;;;-148.14;100.00;65945.72;4929509;29;20082;-91
2023/12/14 12:01:28;;;;;;;32.83;20.90;;;;;;;-148.14;100.00;65945.72;4928266;29;20115;-90
2023/12/14 12:04:18;;;;;;;30.90;18.60;;;;;;;-148.14;100.00;65945.72;4929068;29;20154;-89
2023/12/14 12:07:16;;;;;;;31.13;17.30;;;;;;;-148.14;100.00;65945.72;4934526;29;20130;-91
2023/12/14 12:14:07;;;;;;;33.60;19.38;;;;;;;-148.14;100.00;65945.72;4954708;29;20091;-90
2023/12/14 12:25:02;;;;;;;25.52;16.15;;;;;;;-148.14;100.00;65945.72;4960130;29;20110;-90
2023/12/14 12:27:47;;;;;;;24.88;15.40;;;;;;;-148.14;100.00;65945.72;4955675;29;20545;-89
2023/12/14 12:30:31;;;;;;;26.20;15.95;;;;;;;-148.14;100.00;65945.72;4954748;29;20054;-89
2023/12/14 12:33:15;;;;;;;30.60;17.35;;;;;;;-148.14;100.00;65945.72;4953003;29;20058;-91
2023/12/14 12:36:04;;;;;;;23.92;15.57;;;;;;;-148.14;100.00;65945.72;4952157;29;20050;-91
2023/12/14 12:38:48;;;;;;;21.67;14.93;;;;;;;-148.14;100.00;65945.72;4952738;29;20050;-90
2023/12/14 12:41:33;;;;;;;20.20;12.75;;;;;;;-148.14;100.00;65945.72;4953253;29;20058;-91
2023/12/14 12:44:17;;;;;;;14.45;10.18;;;;;;;-148.14;100.00;65945.72;4950468;29;20058;-90
2023/12/14 12:47:03;;;;;;;15.35;10.38;;;;;;;-148.14;100.00;65945.72;4954538;29;20050;-90
2023/12/14 12:49:48;;;;;;;15.15;11.15;;;;;;;-148.14;100.00;65945.72;4953259;29;20110;-89
2023/12/14 12:52:32;;;;;;;17.15;11.55;;;;;;;-148.14;100.00;65945.72;4953345;29;20214;-92
2023/12/14 12:55:17;;;;;;;16.02;11.20;;;;;;;-148.14;100.00;65945.72;4953827;29;20050;-90
2023/12/14 12:58:04;;;;;;;16.65;12.02;;;;;;;-148.14;100.00;65945.72;4953533;29;20046;-90
2023/12/14 13:00:49;;;;;;;17.30;12.52;;;;;;;-148.14;100.00;65945.72;4952560;29;20062;-91